Time;durP1;ratioP1;P1;durP2;ratioP2;P2;SDS_P1;SDS_P2;PMS_P1;PMS_P2;Temp;Humidity;BMP_temperature;BMP_pressure;BME280_temperature;BME280_humidity;BME280_pressure;Samples;Min_cycle;Max_cycle;Signal;HPM_P1;HPM_P2
2022/06/24 00:00:08;;;;;;;5.38;3.10;;;;;;;-148.88;45.21;74093.72;4975248;28;20023;-74
2022/06/24 00:02:34;;;;;;;6.90;2.90;;;;;;;-148.88;45.54;74095.72;4975641;28;20476;-74
2022/06/24 00:05:03;;;;;;;5.28;3.00;;;;;;;-148.88;45.95;74097.78;4976015;28;20034;-74
2022/06/24 00:07:28;;;;;;;6.15;2.60;;;;;;;-148.88;45.49;74105.88;4975699;28;20034;-74
2022/06/24 00:09:53;;;;;;;5.82;2.63;;;;;;;-148.88;45.59;74103.84;4974368;28;20034;-74
2022/06/24 00:12:23;;;;;;;4.30;2.67;;;;;;;-148.88;45.55;74107.91;4976432;28;20036;-74
2022/06/24 00:15:00;;;;;;;5.10;2.95;;;;;;;-148.88;45.64;74103.84;4976518;28;20069;-74
2022/06/24 00:17:30;;;;;;;4.68;2.50;;;;;;;-148.88;45.70;74107.91;4976300;28;20089;-74
2022/06/24 00:19:58;;;;;;;5.10;2.50;;;;;;;-148.88;45.78;74120.09;4976176;28;20102;-75
2022/06/24 00:22:25;;;;;;;3.88;2.40;;;;;;;-148.88;46.28;74111.97;4976167;28;20440;-75
2022/06/24 00:25:07;;;;;;;4.22;2.40;;;;;;;-148.88;46.43;74116.03;4975819;28;20109;-75
2022/06/24 00:27:33;;;;;;;4.35;2.60;;;;;;;-148.88;46.60;74120.09;4975993;28;20035;-74
2022/06/24 00:30:06;;;;;;;4.70;2.75;;;;;;;-148.88;46.84;74128.22;4975821;28;20046;-74
2022/06/24 00:32:32;;;;;;;4.97;3.25;;;;;;;-148.88;46.92;74130.25;4975917;28;20053;-74
2022/06/24 00:35:09;;;;;;;6.88;2.78;;;;;;;-148.88;47.32;74132.28;4975693;28;20031;-74
2022/06/24 00:37:36;;;;;;;4.30;3.00;;;;;;;-148.88;47.43;74128.22;4975983;28;20034;-74
2022/06/24 00:40:10;;;;;;;3.95;2.90;;;;;;;-148.88;47.20;74126.19;4975631;28;20037;-75
2022/06/24 00:42:37;;;;;;;5.97;3.13;;;;;;;-148.88;47.43;74128.22;4975654;28;20074;-74
2022/06/24 00:45:24;;;;;;;4.43;2.88;;;;;;;-148.88;47.68;74120.09;4975479;28;20503;-74
2022/06/24 00:47:51;;;;;;;3.47;2.80;;;;;;;-148.88;47.77;74114.00;4975620;28;20023;-75
2022/06/24 00:50:27;;;;;;;3.67;2.40;;;;;;;-148.88;47.53;74116.03;4975638;28;20058;-74
2022/06/24 00:52:58;;;;;;;3.95;2.80;;;;;;;-148.88;47.96;74126.19;4975671;28;20027;-74
2022/06/24 00:55:28;;;;;;;5.32;2.80;;;;;;;-148.88;47.66;74120.09;4975438;28;20038;-74
2022/06/24 00:57:54;;;;;;;4.82;3.10;;;;;;;-148.88;47.42;74128.22;4975343;28;20085;-74
2022/06/24 01:00:26;;;;;;;4.07;3.00;;;;;;;-148.88;47.98;74132.28;4975199;28;20472;-75
2022/06/24 01:03:00;;;;;;;2.95;2.42;;;;;;;-148.88;47.86;74132.28;4974182;28;20077;-75
2022/06/24 01:05:27;;;;;;;4.60;3.20;;;;;;;-148.88;48.53;74132.28;4975806;28;20027;-75
2022/06/24 01:07:52;;;;;;;5.38;2.50;;;;;;;-148.88;48.60;74138.38;4975104;28;20066;-74
2022/06/24 01:10:17;;;;;;;5.97;2.60;;;;;;;-148.88;48.00;74128.22;4973454;28;20065;-74
2022/06/24 01:12:43;;;;;;;3.90;2.63;;;;;;;-148.88;48.89;74136.34;4975253;28;20031;-74
2022/06/24 01:15:09;;;;;;;3.85;2.80;;;;;;;-148.88;48.71;74138.38;4975251;28;20035;-74
2022/06/24 01:17:34;;;;;;;4.30;3.10;;;;;;;-148.88;48.41;74136.34;4974952;28;20487;-75
2022/06/24 01:20:00;;;;;;;6.80;3.00;;;;;;;-148.88;48.87;74128.22;4974852;28;20118;-74
2022/06/24 01:22:26;;;;;;;3.65;2.88;;;;;;;-148.88;48.50;74132.28;4975076;28;20039;-74
2022/06/24 01:24:53;;;;;;;4.78;2.45;;;;;;;-148.88;48.92;74142.44;5000736;23;20068;-77
2022/06/24 01:27:18;;;;;;;5.03;2.80;;;;;;;-148.88;48.80;74148.53;5013823;28;20026;-76
2022/06/24 01:29:45;;;;;;;3.97;2.80;;;;;;;-148.88;49.19;74140.41;5013814;28;20105;-76
2022/06/24 01:32:11;;;;;;;4.93;2.88;;;;;;;-148.88;48.91;74132.28;5012571;28;20053;-76
2022/06/24 01:34:37;;;;;;;3.85;2.70;;;;;;;-148.88;48.93;74136.34;5013618;28;20018;-76
2022/06/24 01:37:02;;;;;;;3.80;2.60;;;;;;;-148.88;48.74;74128.22;5013660;28;20534;-76
2022/06/24 01:39:28;;;;;;;3.67;2.70;;;;;;;-148.88;49.21;74132.28;5013609;28;20026;-77
2022/06/24 01:41:53;;;;;;;3.67;2.78;;;;;;;-148.88;49.44;74126.19;5013681;28;20030;-77
2022/06/24 01:44:19;;;;;;;3.63;2.50;;;;;;;-148.88;49.34;74136.34;5013929;28;20025;-77
2022/06/24 01:46:44;;;;;;;4.07;3.00;;;;;;;-148.88;49.83;74140.41;5013569;28;20108;-76
2022/06/24 01:49:10;;;;;;;4.80;2.90;;;;;;;-148.88;49.72;74140.41;5013545;28;20041;-76
2022/06/24 01:51:41;;;;;;;4.85;2.95;;;;;;;-148.88;49.52;74138.38;5013825;28;20077;-76
2022/06/24 01:54:06;;;;;;;6.53;3.10;;;;;;;-148.88;49.62;74144.47;5013845;28;20030;-76
2022/06/24 01:56:32;;;;;;;3.25;2.90;;;;;;;-148.88;49.46;74146.50;5014134;28;20034;-76
2022/06/24 01:58:57;;;;;;;3.65;2.50;;;;;;;-148.88;49.54;74142.44;5013425;28;20145;-76
2022/06/24 02:01:23;;;;;;;5.85;2.60;;;;;;;-148.88;50.08;74148.53;5013851;28;20029;-77
2022/06/24 02:03:48;;;;;;;5.07;2.63;;;;;;;-148.88;49.91;74148.53;5013679;28;20145;-77
2022/06/24 02:06:15;;;;;;;3.50;2.88;;;;;;;-148.88;50.10;74148.53;5013330;28;20041;-76
2022/06/24 02:08:41;;;;;;;3.42;2.97;;;;;;;-148.88;49.91;74148.53;5013725;28;20018;-76
2022/06/24 02:13:51;;;;;;;5.30;3.15;;;;;;;-148.88;49.90;74154.63;5013157;28;20049;-76
2022/06/24 02:16:20;;;;;;;5.22;3.20;;;;;;;-148.88;49.87;74158.69;5013067;28;20391;-76
2022/06/24 02:18:47;;;;;;;5.38;2.90;;;;;;;-148.88;50.21;74162.75;5012669;28;20490;-76
2022/06/24 02:21:13;;;;;;;5.38;3.10;;;;;;;-148.88;50.34;74160.72;5028147;28;20168;-76
2022/06/24 02:23:39;;;;;;;4.97;2.97;;;;;;;-148.88;50.51;74158.69;5016753;28;20041;-76
2022/06/24 02:26:06;;;;;;;4.65;3.22;;;;;;;-148.88;50.37;74162.75;5016689;28;20049;-76
2022/06/24 02:28:31;;;;;;;4.50;3.05;;;;;;;-148.88;50.30;74160.72;5016613;28;20028;-76
2022/06/24 02:30:58;;;;;;;3.88;3.10;;;;;;;-148.88;50.46;74152.59;5015236;28;20116;-76
2022/06/24 02:33:24;;;;;;;5.38;3.15;;;;;;;-148.88;50.77;74152.59;5031732;28;20025;-76
2022/06/24 02:35:50;;;;;;;5.53;2.95;;;;;;;-148.88;50.36;74160.72;5016551;28;20033;-76
2022/06/24 02:38:16;;;;;;;4.95;3.00;;;;;;;-148.88;50.41;74152.59;5031629;28;20565;-77
2022/06/24 02:40:51;;;;;;;5.57;2.88;;;;;;;-148.88;49.62;74152.59;5017153;28;20029;-77
2022/06/24 02:43:32;;;;;;;5.70;3.00;;;;;;;-148.88;49.54;74148.53;5015753;28;20056;-76
2022/06/24 02:46:00;;;;;;;3.40;2.90;;;;;;;-148.88;49.62;74156.66;5015385;28;20117;-76
2022/06/24 02:48:26;;;;;;;4.82;2.95;;;;;;;-148.88;48.45;74170.84;5016342;28;20036;-77
2022/06/24 02:50:54;;;;;;;11.80;4.57;;;;;;;-148.88;59.48;74185.06;5016505;28;20120;-77
2022/06/24 02:53:21;;;;;;;16.40;6.25;;;;;;;-148.88;80.66;74294.72;5016554;28;20476;-76
2022/06/24 02:55:52;;;;;;;7.78;5.50;;;;;;;-148.88;86.35;74302.84;5031675;28;20088;-76
2022/06/24 02:58:18;;;;;;;15.52;6.72;;;;;;;-148.88;92.08;74353.59;5016466;28;20446;-76
2022/06/24 03:00:44;;;;;;;11.52;5.70;;;;;;;-148.88;92.69;74347.50;5016316;28;20113;-76
2022/06/24 03:03:11;;;;;;;9.35;6.18;;;;;;;-148.88;92.51;74351.56;5014824;28;20453;-75
2022/06/24 03:05:37;;;;;;;8.55;6.00;;;;;;;-148.88;93.11;74347.50;5016123;28;20026;-75
2022/06/24 03:08:03;;;;;;;7.13;6.15;;;;;;;-148.88;94.47;74355.63;5018572;28;20569;-76
2022/06/24 03:10:28;;;;;;;7.88;6.25;;;;;;;-148.88;95.72;74363.75;5016215;28;20037;-76
2022/06/24 03:12:54;;;;;;;9.60;6.50;;;;;;;-148.88;95.01;74371.88;5016386;28;20029;-75
2022/06/24 03:15:19;;;;;;;10.13;6.97;;;;;;;-148.88;96.18;74388.13;5015928;28;20403;-76
2022/06/24 03:17:45;;;;;;;10.07;6.30;;;;;;;-148.88;94.76;74392.19;5015796;28;20033;-76
2022/06/24 03:20:11;;;;;;;7.25;6.07;;;;;;;-148.88;92.55;74396.25;5015828;28;20026;-76
2022/06/24 03:22:37;;;;;;;8.70;5.72;;;;;;;-148.88;92.33;74412.47;5030735;28;20028;-76
2022/06/24 03:25:04;;;;;;;7.53;5.80;;;;;;;-148.88;91.84;74412.47;5015712;28;20378;-76
2022/06/24 03:27:29;;;;;;;8.23;5.70;;;;;;;-148.88;92.75;74404.38;5016184;28;20060;-76
2022/06/24 03:29:54;;;;;;;9.77;5.97;;;;;;;-148.88;92.68;74416.53;5015935;28;20502;-76
2022/06/24 03:32:20;;;;;;;6.70;5.55;;;;;;;-148.88;92.77;74410.47;5015961;28;20030;-76
2022/06/24 03:34:45;;;;;;;6.90;5.57;;;;;;;-148.88;93.56;74416.53;5014599;28;20045;-76
2022/06/24 03:37:11;;;;;;;8.65;5.97;;;;;;;-148.88;93.50;74420.59;5016027;28;20030;-76
2022/06/24 03:39:36;;;;;;;10.30;6.25;;;;;;;-148.88;93.72;74436.84;5015803;28;20509;-76
2022/06/24 03:42:02;;;;;;;13.13;7.30;;;;;;;-148.88;94.01;74442.94;5015649;28;20125;-76
2022/06/24 03:44:28;;;;;;;12.45;7.90;;;;;;;-148.88;94.41;74449.03;5030894;28;20029;-76
2022/06/24 03:46:53;;;;;;;9.77;6.30;;;;;;;-148.88;94.36;74451.06;5015410;28;20395;-76
2022/06/24 03:49:19;;;;;;;10.00;6.28;;;;;;;-148.88;95.30;74444.97;5014041;28;20028;-75
2022/06/24 03:51:45;;;;;;;7.88;6.57;;;;;;;-148.88;96.16;74444.97;5015042;28;20478;-75
2022/06/24 03:54:10;;;;;;;8.90;6.75;;;;;;;-148.88;96.28;74444.97;5015058;28;20037;-75
2022/06/24 03:56:35;;;;;;;9.20;6.75;;;;;;;-148.88;96.08;74424.66;5013857;28;20025;-75
2022/06/24 03:59:01;;;;;;;10.57;7.03;;;;;;;-148.88;97.73;74420.59;5013720;28;20021;-75
2022/06/24 04:01:26;;;;;;;11.63;6.45;;;;;;;-148.88;98.10;74426.69;5013570;28;20511;-75
2022/06/24 04:03:51;;;;;;;10.20;7.00;;;;;;;-148.88;99.38;74438.88;5014879;28;20022;-75
2022/06/24 04:06:17;;;;;;;9.57;6.60;;;;;;;-148.88;98.47;74469.34;5013714;28;20025;-77
2022/06/24 04:08:43;;;;;;;11.40;6.57;;;;;;;-148.88;96.88;74469.34;5014067;28;20440;-76
2022/06/24 04:11:15;;;;;;;8.38;6.10;;;;;;;-148.88;92.85;74392.19;5013502;28;20021;-77
2022/06/24 04:13:41;;;;;;;6.57;5.50;;;;;;;-148.88;91.60;74339.38;5015046;28;20026;-77
2022/06/24 04:16:07;;;;;;;8.60;4.93;;;;;;;-148.88;86.99;74286.59;5014625;28;20029;-77
2022/06/24 04:18:33;;;;;;;8.40;4.72;;;;;;;-148.88;86.63;74266.28;5014588;28;20026;-77
2022/06/24 04:20:59;;;;;;;9.38;5.22;;;;;;;-148.88;88.37;74258.16;5014750;28;20018;-75
2022/06/24 04:23:24;;;;;;;7.95;4.95;;;;;;;-148.88;87.41;74256.13;5029730;28;20029;-76
2022/06/24 04:25:50;;;;;;;9.15;5.50;;;;;;;-148.88;88.31;74254.09;5014310;28;20045;-76
2022/06/24 04:28:16;;;;;;;7.95;5.22;;;;;;;-148.88;90.00;74254.09;5014680;28;20502;-76
2022/06/24 04:30:41;;;;;;;6.78;5.00;;;;;;;-148.88;91.48;74268.31;5014474;28;20113;-76
2022/06/24 04:33:07;;;;;;;9.32;5.40;;;;;;;-148.88;93.18;74270.34;5014439;28;20026;-75
2022/06/24 04:35:32;;;;;;;8.77;5.25;;;;;;;-148.88;94.50;74274.41;5014488;28;20030;-75
2022/06/24 04:37:57;;;;;;;7.03;4.80;;;;;;;-148.88;94.82;74278.47;5014194;28;20038;-75
2022/06/24 04:40:23;;;;;;;8.57;5.25;;;;;;;-148.88;95.90;74286.59;5029474;28;20064;-76
2022/06/24 04:42:48;;;;;;;9.95;5.40;;;;;;;-148.88;96.15;74284.56;5014163;28;20029;-75
2022/06/24 04:45:14;;;;;;;6.40;4.80;;;;;;;-148.88;95.89;74282.53;5013628;28;20394;-77
2022/06/24 04:47:40;;;;;;;10.27;5.35;;;;;;;-148.88;96.89;74284.56;5014277;28;20022;-76
2022/06/24 04:50:09;;;;;;;8.02;5.25;;;;;;;-148.88;97.18;74280.50;5012926;28;20029;-77
2022/06/24 04:52:35;;;;;;;8.00;5.88;;;;;;;-148.88;98.33;74278.47;5013282;28;20117;-76
2022/06/24 04:55:01;;;;;;;7.80;4.97;;;;;;;-148.88;97.83;74276.44;5015938;28;20036;-76
2022/06/24 04:57:26;;;;;;;8.13;5.57;;;;;;;-148.88;98.19;74278.47;5015998;28;20108;-77
2022/06/24 04:59:52;;;;;;;8.02;5.75;;;;;;;-148.88;99.69;74270.34;5013723;28;20339;-78
2022/06/24 05:02:17;;;;;;;8.52;5.53;;;;;;;-148.88;99.67;74276.44;5014768;28;20049;-78
2022/06/24 05:04:43;;;;;;;8.23;6.10;;;;;;;-148.88;100.00;74274.41;5014045;28;20479;-76
2022/06/24 05:07:08;;;;;;;8.30;5.25;;;;;;;-148.88;100.00;74262.22;5014082;28;20495;-76
2022/06/24 05:09:34;;;;;;;10.20;5.68;;;;;;;-148.88;99.82;74254.09;5012496;28;20029;-76
2022/06/24 05:11:59;;;;;;;9.65;5.18;;;;;;;-148.88;99.84;74254.09;5014124;28;20528;-76
2022/06/24 05:14:25;;;;;;;8.80;5.30;;;;;;;-148.88;99.94;74237.88;5014311;28;20022;-76
2022/06/24 05:16:50;;;;;;;9.68;4.95;;;;;;;-148.88;99.28;74225.69;5014504;28;20109;-77
2022/06/24 05:19:16;;;;;;;10.80;4.60;;;;;;;-148.88;98.36;74223.66;5014705;28;20110;-76
2022/06/24 05:21:41;;;;;;;8.98;4.80;;;;;;;-148.88;99.78;74209.44;5014898;28;20030;-77
2022/06/24 05:24:07;;;;;;;10.15;5.05;;;;;;;-148.88;99.93;74209.44;5012868;28;20513;-77
2022/06/24 05:26:32;;;;;;;6.95;4.93;;;;;;;-148.88;99.10;74195.22;5014261;28;20410;-78
2022/06/24 05:28:58;;;;;;;7.28;4.47;;;;;;;-148.88;99.66;74183.03;5014112;28;20391;-77
2022/06/24 05:31:23;;;;;;;7.78;4.57;;;;;;;-148.88;99.67;74172.88;5012523;28;20060;-77
2022/06/24 05:33:48;;;;;;;8.57;4.53;;;;;;;-148.88;96.19;74144.47;5013544;28;20159;-77
2022/06/24 05:36:14;;;;;;;10.23;4.60;;;;;;;-148.88;95.85;74128.22;5013732;28;20025;-77
2022/06/24 05:38:39;;;;;;;7.57;4.68;;;;;;;-148.88;96.14;74124.16;5028727;28;20034;-77
2022/06/24 05:41:04;;;;;;;8.88;4.60;;;;;;;-148.88;95.23;74116.03;5013764;28;20056;-77
2022/06/24 05:43:31;;;;;;;7.43;4.40;;;;;;;-148.88;93.80;74124.16;5013508;28;20041;-77
2022/06/24 05:45:56;;;;;;;10.40;4.45;;;;;;;-148.88;93.64;74095.72;5013387;28;20022;-76
2022/06/24 05:48:21;;;;;;;8.68;4.10;;;;;;;-148.88;91.24;74091.69;5013603;28;20075;-76
2022/06/24 05:50:47;;;;;;;5.60;4.13;;;;;;;-148.88;92.87;74073.41;5013841;28;20501;-77
2022/06/24 05:55:59;;;;;;;9.57;4.03;;;;;;;-148.88;90.30;74053.09;5013229;28;20036;-77
2022/06/24 05:58:25;;;;;;;5.38;3.70;;;;;;;-148.88;89.73;74034.81;5028173;28;20029;-77
2022/06/24 06:00:51;;;;;;;6.78;3.88;;;;;;;-148.88;87.85;74020.63;5028598;28;20407;-78
2022/06/24 06:03:17;;;;;;;8.25;4.30;;;;;;;-148.88;91.29;74012.50;5013614;28;20463;-78
2022/06/24 06:05:42;;;;;;;10.85;3.65;;;;;;;-148.88;90.32;74016.56;5011716;28;20092;-77
2022/06/24 06:08:07;;;;;;;6.20;3.72;;;;;;;-148.88;90.88;74002.34;5013111;28;20030;-78
2022/06/24 06:10:36;;;;;;;8.02;3.67;;;;;;;-148.88;87.20;73969.84;5013324;28;20026;-77
2022/06/24 06:13:01;;;;;;;11.63;3.67;;;;;;;-148.88;87.85;73941.44;5012294;28;20025;-77
2022/06/24 06:15:31;;;;;;;8.52;3.90;;;;;;;-148.88;87.28;73929.25;5012273;28;20025;-77
2022/06/24 06:18:01;;;;;;;8.20;3.80;;;;;;;-148.88;84.71;73937.38;5015188;28;20022;-78
2022/06/24 06:20:26;;;;;;;11.10;3.13;;;;;;;-148.88;84.31;73957.69;5028850;28;20022;-77
2022/06/24 06:22:52;;;;;;;8.55;3.40;;;;;;;-148.88;84.91;73959.72;5015656;28;20148;-77
2022/06/24 06:25:17;;;;;;;8.68;3.85;;;;;;;-148.88;85.29;73957.69;5013222;28;20097;-77
2022/06/24 06:27:42;;;;;;;10.40;3.50;;;;;;;-148.88;84.45;73973.91;5013322;28;20022;-77
2022/06/24 06:30:09;;;;;;;8.05;3.42;;;;;;;-148.88;86.35;73977.97;5013246;28;20467;-77
2022/06/24 06:32:34;;;;;;;8.88;3.50;;;;;;;-148.88;85.32;73986.09;5013289;28;20080;-77
2022/06/24 06:34:59;;;;;;;5.63;3.05;;;;;;;-148.88;85.15;73992.19;5013813;28;20030;-77
2022/06/24 06:37:24;;;;;;;6.57;3.15;;;;;;;-148.88;84.67;73973.91;5013117;28;20038;-77
2022/06/24 06:39:50;;;;;;;8.60;3.00;;;;;;;-148.88;84.92;73957.69;5013189;28;20030;-76
2022/06/24 06:42:15;;;;;;;10.48;3.63;;;;;;;-148.88;84.48;73917.06;5013144;28;20026;-77
2022/06/24 06:44:40;;;;;;;7.13;3.65;;;;;;;-148.88;83.38;73925.19;5013010;28;20065;-77
2022/06/24 06:47:06;;;;;;;6.85;3.50;;;;;;;-148.88;84.94;73902.84;5013101;28;20026;-77
2022/06/24 06:49:32;;;;;;;8.70;4.28;;;;;;;-148.88;85.10;73884.59;5011922;28;20081;-77
2022/06/24 06:52:00;;;;;;;9.32;4.50;;;;;;;-148.88;85.31;73892.72;5013356;28;20030;-78
2022/06/24 06:54:25;;;;;;;7.70;4.38;;;;;;;-148.88;86.58;73896.75;5012929;28;20026;-77
2022/06/24 06:56:50;;;;;;;8.15;4.72;;;;;;;-148.88;86.87;73878.50;5011853;28;20079;-77
2022/06/24 06:59:15;;;;;;;7.32;4.35;;;;;;;-148.88;86.07;73880.53;5013454;28;20484;-77
2022/06/24 07:01:41;;;;;;;10.10;5.18;;;;;;;-148.88;85.54;73888.66;5012961;28;20499;-76
2022/06/24 07:04:06;;;;;;;6.65;4.88;;;;;;;-148.88;86.18;73896.75;5013171;28;20045;-77
2022/06/24 07:06:31;;;;;;;8.70;5.28;;;;;;;-148.88;86.97;73908.94;5013567;28;20471;-77
2022/06/24 07:08:57;;;;;;;9.05;4.88;;;;;;;-148.88;86.29;73915.03;5016120;28;20071;-76
2022/06/24 07:11:22;;;;;;;9.95;4.97;;;;;;;-148.88;87.99;73917.06;5017108;28;20030;-77
2022/06/24 07:13:47;;;;;;;9.52;5.18;;;;;;;-148.88;88.36;73919.09;5015164;28;20072;-77
2022/06/24 07:16:12;;;;;;;5.95;3.95;;;;;;;-148.88;87.87;73925.19;5016810;28;20026;-77
2022/06/24 07:18:38;;;;;;;8.52;4.15;;;;;;;-148.88;85.95;73937.38;5016243;28;20048;-76
2022/06/24 07:21:03;;;;;;;9.30;3.95;;;;;;;-148.88;86.35;73957.69;5016303;28;20426;-76
2022/06/24 07:23:28;;;;;;;5.32;2.88;;;;;;;-148.88;85.45;73941.44;5016400;28;20030;-76
2022/06/24 07:25:57;;;;;;;7.05;3.00;;;;;;;-148.88;85.66;73949.56;5014778;23;20056;-75
2022/06/24 07:28:25;;;;;;;8.48;3.13;;;;;;;-148.88;84.74;73965.78;4996081;28;20034;-74
2022/06/24 07:30:50;;;;;;;7.28;2.67;;;;;;;-148.88;85.31;73982.03;4995763;28;20238;-74
2022/06/24 07:33:16;;;;;;;6.95;3.53;;;;;;;-148.88;86.43;73986.09;4996123;28;20034;-75
2022/06/24 07:35:41;;;;;;;6.45;2.50;;;;;;;-148.88;84.65;73986.09;4995810;28;20028;-74
2022/06/24 07:38:06;;;;;;;7.55;2.75;;;;;;;-148.88;89.33;74002.34;4995617;28;20089;-75
2022/06/24 07:40:32;;;;;;;6.43;2.67;;;;;;;-148.88;89.61;74038.88;4995556;28;20430;-75
2022/06/24 07:42:57;;;;;;;6.10;1.70;;;;;;;-148.88;87.64;74059.19;4995401;28;20052;-75
2022/06/24 07:45:22;;;;;;;4.75;1.90;;;;;;;-148.88;89.22;74077.47;4995578;28;20033;-75
2022/06/24 07:47:48;;;;;;;5.20;1.90;;;;;;;-148.88;90.53;74075.44;4995560;28;20030;-75
2022/06/24 07:50:13;;;;;;;5.75;1.90;;;;;;;-148.88;92.30;74079.50;4995632;28;20533;-74
2022/06/24 07:52:38;;;;;;;4.57;2.20;;;;;;;-148.88;92.80;74083.56;4995629;28;20046;-75
2022/06/24 07:57:48;;;;;;;4.93;2.00;;;;;;;-148.88;95.46;74077.47;4995657;28;20449;-75
2022/06/24 08:00:13;;;;;;;4.85;2.00;;;;;;;-148.88;94.89;74091.69;4995330;28;20527;-75
2022/06/24 08:02:39;;;;;;;4.97;2.00;;;;;;;-148.88;94.43;74081.53;4995396;28;20044;-75
2022/06/24 08:05:04;;;;;;;5.32;2.05;;;;;;;-148.88;95.30;74083.56;4995188;28;20399;-75
2022/06/24 08:07:30;;;;;;;5.80;2.05;;;;;;;-148.88;95.06;74083.56;4977632;28;20034;-75
2022/06/24 08:09:55;;;;;;;5.35;2.22;;;;;;;-148.88;97.25;74059.19;4994897;28;20053;-75
2022/06/24 08:12:20;;;;;;;6.18;2.05;;;;;;;-148.88;96.09;74057.16;4995154;28;20042;-75
2022/06/24 08:14:46;;;;;;;6.95;2.50;;;;;;;-148.88;95.33;74055.13;4994874;28;20022;-75
2022/06/24 08:17:11;;;;;;;7.07;2.47;;;;;;;-148.88;94.90;74042.94;4995089;28;20026;-75
2022/06/24 08:19:36;;;;;;;4.82;2.17;;;;;;;-148.88;94.51;74036.84;4994129;28;20030;-74
2022/06/24 08:22:02;;;;;;;5.45;2.22;;;;;;;-148.88;94.45;74014.53;4994804;28;20475;-76
2022/06/24 08:24:27;;;;;;;4.32;2.40;;;;;;;-148.88;96.42;74006.41;4994774;28;20026;-76
2022/06/24 08:26:52;;;;;;;5.10;1.90;;;;;;;-148.88;93.15;74022.66;4995203;28;20471;-74
2022/06/24 08:29:17;;;;;;;5.20;2.00;;;;;;;-148.88;93.04;74024.69;4994766;28;20109;-73
2022/06/24 08:31:43;;;;;;;6.38;2.00;;;;;;;-148.88;93.92;74010.47;4995065;28;20165;-73
2022/06/24 08:34:09;;;;;;;5.07;1.95;;;;;;;-148.88;91.60;74006.41;4977246;28;20140;-74
2022/06/24 08:36:34;;;;;;;5.93;1.70;;;;;;;-148.88;89.38;74016.56;4994723;28;20373;-73
2022/06/24 08:39:00;;;;;;;4.50;1.55;;;;;;;-148.88;89.54;73984.06;4994869;28;20030;-73
2022/06/24 08:41:26;;;;;;;3.22;1.60;;;;;;;-148.88;90.76;73980.00;4994885;28;20368;-73
2022/06/24 08:43:52;;;;;;;4.03;1.40;;;;;;;-148.88;89.73;73984.06;4994918;28;20018;-75
2022/06/24 08:46:19;;;;;;;4.57;1.38;;;;;;;-148.88;87.23;73994.22;4994502;28;20023;-74
2022/06/24 08:48:44;;;;;;;2.95;1.38;;;;;;;-148.88;89.49;73969.84;4994466;28;20023;-74
2022/06/24 08:51:13;;;;;;;4.75;1.42;;;;;;;-148.88;88.41;73957.69;4994493;28;20073;-75
2022/06/24 08:53:39;;;;;;;4.40;1.60;;;;;;;-148.88;89.29;73953.63;4994412;28;20050;-74
2022/06/24 08:56:05;;;;;;;3.17;1.30;;;;;;;-148.88;88.17;73953.63;4994417;28;20030;-74
2022/06/24 08:58:30;;;;;;;5.47;1.92;;;;;;;-148.88;87.27;73949.56;4994447;28;20475;-75
2022/06/24 09:00:56;;;;;;;4.47;1.60;;;;;;;-148.88;86.81;73947.53;4994145;28;20045;-75
2022/06/24 09:03:21;;;;;;;5.57;1.60;;;;;;;-148.88;87.37;73935.34;4994407;28;20077;-74
2022/06/24 09:05:47;;;;;;;6.57;1.60;;;;;;;-148.88;87.32;73921.13;4994447;28;20395;-75
2022/06/24 09:08:17;;;;;;;3.55;1.48;;;;;;;-148.88;85.61;73913.00;4994331;28;20098;-74
2022/06/24 09:11:06;;;;;;;3.85;1.35;;;;;;;-148.88;85.51;73902.84;4994404;28;20558;-75
2022/06/24 09:13:31;;;;;;;4.13;1.55;;;;;;;-148.88;87.17;73890.69;4993941;28;20045;-75
2022/06/24 09:15:56;;;;;;;4.90;1.55;;;;;;;-148.88;83.94;73888.66;4993964;28;20109;-75
2022/06/24 09:18:23;;;;;;;4.60;1.58;;;;;;;-148.88;81.58;73892.72;4994046;28;20065;-75
2022/06/24 09:20:49;;;;;;;5.05;1.67;;;;;;;-148.88;82.77;73884.59;4994086;28;20043;-75
2022/06/24 09:23:15;;;;;;;2.83;1.27;;;;;;;-148.88;82.29;73886.63;4976246;28;20433;-74
2022/06/24 09:25:56;;;;;;;4.38;1.60;;;;;;;-148.88;83.58;73872.41;4993647;28;20054;-75
2022/06/24 09:28:27;;;;;;;5.35;1.80;;;;;;;-148.88;84.12;73868.34;4993725;28;20168;-75
2022/06/24 09:31:01;;;;;;;4.40;1.92;;;;;;;-148.88;81.91;73854.13;4993637;28;20507;-74
2022/06/24 09:33:27;;;;;;;3.80;1.17;;;;;;;-148.88;79.24;73852.09;4994168;28;20417;-74
2022/06/24 09:36:03;;;;;;;4.90;1.58;;;;;;;-148.88;80.78;73848.03;4993478;28;20160;-74
2022/06/24 09:38:29;;;;;;;3.15;1.48;;;;;;;-148.88;80.06;73852.09;4993453;28;20484;-74
2022/06/24 09:41:04;;;;;;;5.22;1.50;;;;;;;-148.88;77.79;73872.41;4993358;28;20030;-74
2022/06/24 09:43:31;;;;;;;6.60;1.65;;;;;;;-148.88;77.22;73866.31;4975804;28;20618;-74
2022/06/24 09:45:56;;;;;;;3.33;1.40;;;;;;;-148.88;77.64;73884.59;4993610;28;20032;-74
2022/06/24 09:48:37;;;;;;;5.30;1.80;;;;;;;-148.88;77.90;73890.69;4993847;28;20030;-75
2022/06/24 09:51:04;;;;;;;3.58;1.35;;;;;;;-148.88;79.87;73884.59;4993764;28;20364;-75
2022/06/24 09:53:32;;;;;;;6.22;1.88;;;;;;;-148.88;80.86;73904.88;4993685;28;20058;-76
2022/06/24 09:55:59;;;;;;;4.82;1.73;;;;;;;-148.88;81.40;73902.84;4993589;28;20026;-75
2022/06/24 09:58:25;;;;;;;4.05;1.70;;;;;;;-148.88;82.02;73892.72;4993117;28;20031;-74
2022/06/24 10:00:50;;;;;;;5.00;1.75;;;;;;;-148.88;82.45;73860.22;4992977;28;20030;-75
2022/06/24 10:03:16;;;;;;;2.78;1.50;;;;;;;-148.88;79.24;73843.97;4993066;28;20037;-75
2022/06/24 10:05:45;;;;;;;3.95;1.50;;;;;;;-148.88;79.12;73819.63;4993055;28;20447;-75
2022/06/24 10:08:16;;;;;;;5.60;2.13;;;;;;;-148.88;78.13;73825.72;4993085;28;20045;-75
2022/06/24 10:10:51;;;;;;;5.47;1.92;;;;;;;-148.88;80.20;73811.50;4993073;28;20058;-74
2022/06/24 10:13:29;;;;;;;3.53;1.52;;;;;;;-148.88;77.66;73813.53;4993069;28;20022;-74
2022/06/24 10:15:56;;;;;;;6.53;1.60;;;;;;;-148.88;75.85;73815.56;4993114;28;20397;-74
2022/06/24 10:18:41;;;;;;;6.22;1.70;;;;;;;-148.88;77.24;73813.53;4992959;28;20023;-75
2022/06/24 10:21:10;;;;;;;4.53;1.70;;;;;;;-148.88;77.58;73815.56;4993412;28;20026;-75
2022/06/24 10:23:50;;;;;;;4.13;1.67;;;;;;;-148.88;75.59;73829.78;4993363;28;20424;-74
2022/06/24 10:26:30;;;;;;;2.70;1.88;;;;;;;-148.88;76.24;73821.66;4993180;28;20044;-74
2022/06/24 10:29:04;;;;;;;4.38;1.42;;;;;;;-148.88;77.63;73803.38;4993052;28;20527;-74
2022/06/24 10:31:41;;;;;;;4.38;1.65;;;;;;;-148.88;74.57;73795.25;4993298;28;20177;-75
2022/06/24 10:34:07;;;;;;;3.58;1.50;;;;;;;-148.88;74.93;73766.84;4993156;28;20023;-75
2022/06/24 10:36:33;;;;;;;5.68;1.92;;;;;;;-148.88;73.70;73724.19;4993362;28;20030;-74
2022/06/24 10:39:10;;;;;;;4.90;1.80;;;;;;;-148.88;74.05;73707.97;4993151;28;20033;-75
2022/06/24 10:41:39;;;;;;;3.50;1.60;;;;;;;-148.88;72.05;73677.50;4993250;28;20037;-74
2022/06/24 10:44:24;;;;;;;3.92;1.60;;;;;;;-148.88;69.93;73649.09;4995906;28;20491;-74
2022/06/24 10:47:04;;;;;;;4.75;1.90;;;;;;;-148.88;69.13;73669.38;4996639;28;20521;-74
2022/06/24 10:49:51;;;;;;;4.32;1.70;;;;;;;-148.88;68.98;73675.47;4996596;28;20105;-74
2022/06/24 10:52:55;;;;;;;4.90;1.80;;;;;;;-148.88;70.40;73671.41;4979413;28;20093;-74
2022/06/24 10:55:21;;;;;;;4.28;1.75;;;;;;;-148.88;70.31;73689.69;4979031;28;20033;-74
2022/06/24 10:58:00;;;;;;;4.05;1.90;;;;;;;-148.88;71.66;73671.41;4996780;28;20115;-74
2022/06/24 11:00:48;;;;;;;5.10;1.83;;;;;;;-148.88;68.30;73663.28;4996511;28;20036;-74
2022/06/24 11:03:16;;;;;;;5.72;1.90;;;;;;;-148.88;69.78;73638.94;4996427;28;20026;-75
2022/06/24 11:05:44;;;;;;;3.75;1.67;;;;;;;-148.88;68.31;73588.19;4996524;28;20033;-74
2022/06/24 11:08:21;;;;;;;4.93;2.95;;;;;;;-148.88;66.11;73588.19;4978669;28;20203;-74
2022/06/24 11:10:47;;;;;;;10.60;2.90;;;;;;;-148.88;65.41;73576.00;4996317;28;20022;-74
2022/06/24 11:13:13;;;;;;;7.82;3.72;;;;;;;-148.88;66.81;73571.94;4996517;28;20025;-75
2022/06/24 11:15:49;;;;;;;10.65;3.90;;;;;;;-148.88;66.82;73584.13;4996437;28;20026;-74
2022/06/24 11:18:26;;;;;;;4.45;1.70;;;;;;;-148.88;66.08;73571.94;4996299;28;20483;-74
2022/06/24 11:21:01;;;;;;;3.63;1.80;;;;;;;-148.88;68.36;73563.81;4996029;28;20037;-74
2022/06/24 11:23:29;;;;;;;4.10;1.73;;;;;;;-148.88;66.61;73547.56;4996250;28;20384;-75
2022/06/24 11:26:03;;;;;;;3.30;1.95;;;;;;;-148.88;66.99;73517.13;4995949;28;20110;-75